Airfield :
LOGIN :

Register | Disclaimer

   EN    FR    IT 

 










Legend :    VFR   Marginal VFR   IFR   Intensive IFR   Very Intensive IFR
Visi :
Ceiling :
>= 8 km
>= 3000ft
5 to 8 km
1000 to 3000 ft
1500m to 5 km
500 to 1000 ft
800 to 1500m
200 to 500 ft
< 800m
< 200 ft
Symbols :   Thunderstorms  Fog  Heavy snow  Heavy precipitations  Wind > 20 kt
SIGMETs :     Misc.  Thunderstorms  Icing  Turbulence  Mountain Waves  Volcanic Ashes






- Airport Elevation : 656 ft
- IATA code : CMN


GMMN - Casablanca Mohammed V

CURRENT METAR :
  • 120600Z 20005KT 0800 R35R/1400D FG BKN004 BKN016 13/13 Q1019 NOSIG

EXPIRED METARs :
  • 120540Z 22005KT 1500 BR SCT004 BKN016 14/13 Q1019 BECMG 5000
  • 120500Z 20004KT 0600 R35R/P2000N FG BKN004 BKN016 13/13 Q1019 NOSIG
  • 120442Z 19005KT 4000 BR SCT004 BKN016 13/12 Q1019 NOSIG
  • 120400Z 19004KT 8000 SCT006 BKN016 14/13 Q1019 NOSIG
  • 120330Z 21005KT 8000 -RA SCT006 BKN016 14/13 Q1019 NOSIG

TAF TAF GMMN
Valid from the 12 at 06:00 until the 13 at 12:00 UTC


120500Z 1206/1312 22004KT 0600 FG BKN004 BKN016
BECMG 1207/1209 4000 BR SCT010 BKN016
BECMG 1210/1213 30012KT 8000 SCT016 SCT100
BECMG 1223/1302 16003KT 3000 BR BKN010 SCT016
PROB30
TEMPO 1302/1308 0400 FG OVC004



MET'MAP, your aeronautical weather chart ! - Copyright ORBIFLY December 2007 - Disclaimer

ORBIFLY MET'MAP TEAM :

Programming & Development : Alexandra Zaïnal
Concept & Development : Baudouin d'Aumeries
Co-Development & Prog : Marc-Olivier Méhu
Technical & hardware support : Manuel Goepfert

Contact : metmap@orbifly.com




SOURCES & CREDITS :

   NOAA